Time;durP1;ratioP1;P1;durP2;ratioP2;P2;SDS_P1;SDS_P2;PMS_P1;PMS_P2;Temp;Humidity;BMP_temperature;BMP_pressure;BME280_temperature;BME280_humidity;BME280_pressure;Samples;Min_cycle;Max_cycle;Signal;HPM_P1;HPM_P2
2023/05/28 00:00:34;;;;;;;10.40;2.67;;;11.60;99.90;;;;;;5053692;28;20394;-47
2023/05/28 00:03:00;;;;;;;8.65;2.60;;;11.70;99.90;;;;;;5054362;28;20290;-47
2023/05/28 00:05:26;;;;;;;8.00;2.60;;;11.70;99.90;;;;;;5054964;28;20037;-48
2023/05/28 00:07:52;;;;;;;8.30;2.40;;;11.70;99.90;;;;;;5054750;28;20333;-47
2023/05/28 00:10:17;;;;;;;7.93;2.60;;;11.70;99.90;;;;;;5054481;28;20127;-47
2023/05/28 00:12:43;;;;;;;5.20;2.03;;;11.80;99.90;;;;;;5054709;28;20049;-48
2023/05/28 00:15:09;;;;;;;7.03;2.00;;;11.80;99.90;;;;;;5054554;28;20045;-48
2023/05/28 00:17:35;;;;;;;7.78;1.60;;;11.80;99.90;;;;;;5054207;28;20276;-47
2023/05/28 00:20:01;;;;;;;6.90;2.13;;;11.80;99.90;;;;;;5054560;28;20377;-47
2023/05/28 00:22:26;;;;;;;8.47;2.57;;;11.90;99.90;;;;;;5054321;28;20608;-47
2023/05/28 00:24:52;;;;;;;5.87;1.80;;;11.90;99.90;;;;;;5054191;28;20045;-48
2023/05/28 00:27:18;;;;;;;6.13;2.03;;;12.00;99.90;;;;;;5052990;28;20131;-46
2023/05/28 00:29:43;;;;;;;6.53;1.60;;;12.00;99.90;;;;;;5054345;28;20053;-47
2023/05/28 00:32:09;;;;;;;5.37;1.80;;;12.10;99.90;;;;;;5053966;28;20056;-47
2023/05/28 00:34:35;;;;;;;4.90;1.87;;;12.10;99.90;;;;;;5054223;28;20041;-48
2023/05/28 00:37:01;;;;;;;4.63;2.00;;;12.00;99.90;;;;;;5054649;28;20282;-47
2023/05/28 00:39:26;;;;;;;5.07;2.10;;;12.00;99.90;;;;;;5054088;28;20045;-47
2023/05/28 00:42:02;;;;;;;7.37;2.23;;;11.90;99.90;;;;;;5054009;28;20045;-47
2023/05/28 00:44:29;;;;;;;5.45;1.60;;;11.90;99.90;;;;;;5053795;28;20037;-47
2023/05/28 00:46:55;;;;;;;7.60;2.22;;;11.90;99.90;;;;;;5053709;28;20565;-47
2023/05/28 00:49:22;;;;;;;6.32;1.80;;;11.90;99.90;;;;;;5054104;28;20127;-48
2023/05/28 00:51:48;;;;;;;7.18;1.85;;;11.90;99.90;;;;;;5054048;28;20111;-47
2023/05/28 00:54:15;;;;;;;5.95;1.85;;;11.90;99.90;;;;;;5053901;28;20045;-47
2023/05/28 00:56:41;;;;;;;6.80;1.98;;;11.90;99.90;;;;;;5052641;28;20500;-47
2023/05/28 00:59:07;;;;;;;6.68;2.00;;;11.90;99.90;;;;;;5052396;28;20492;-47
2023/05/28 01:01:35;;;;;;;5.72;2.17;;;11.90;99.90;;;;;;5053486;28;20060;-47
2023/05/28 01:04:01;;;;;;;5.05;2.13;;;11.90;99.90;;;;;;5053607;28;20384;-47
2023/05/28 01:06:28;;;;;;;7.30;1.83;;;12.00;99.90;;;;;;5053687;28;20055;-47
2023/05/28 01:08:55;;;;;;;4.63;1.70;;;12.00;99.90;;;;;;5053595;28;20329;-47
2023/05/28 01:11:21;;;;;;;5.25;1.67;;;12.00;99.90;;;;;;5053530;28;20446;-47
2023/05/28 01:13:47;;;;;;;7.13;1.45;;;12.00;99.90;;;;;;5053373;28;20098;-47
2023/05/28 01:16:13;;;;;;;5.78;1.80;;;12.00;99.90;;;;;;5053591;28;20052;-47
2023/05/28 01:18:41;;;;;;;4.65;1.48;;;12.00;99.90;;;;;;5052295;28;20053;-48
2023/05/28 01:21:08;;;;;;;4.70;2.08;;;12.00;99.90;;;;;;5053500;28;20064;-47
2023/05/28 01:23:45;;;;;;;6.13;1.77;;;11.90;99.90;;;;;;5053332;28;20048;-47
2023/05/28 01:26:13;;;;;;;4.45;1.65;;;12.00;99.90;;;;;;5052077;28;20099;-47
2023/05/28 01:28:44;;;;;;;5.88;1.75;;;11.90;99.90;;;;;;5053476;28;20045;-50
2023/05/28 01:31:13;;;;;;;6.50;2.05;;;11.90;99.90;;;;;;5053863;28;20049;-48
2023/05/28 01:33:42;;;;;;;5.90;1.75;;;11.90;99.90;;;;;;5053722;28;20567;-51
2023/05/28 01:36:31;;;;;;;5.70;1.90;;;11.90;99.90;;;;;;5053419;28;20120;-49
2023/05/28 01:39:01;;;;;;;7.85;2.20;;;11.80;99.90;;;;;;5053056;28;20404;-48
2023/05/28 01:41:28;;;;;;;7.63;1.98;;;11.80;99.90;;;;;;5053400;28;20515;-50
2023/05/28 01:43:54;;;;;;;7.28;2.78;;;11.80;99.90;;;;;;5053156;28;20041;-49
2023/05/28 01:46:22;;;;;;;5.63;2.00;;;11.70;99.90;;;;;;5052322;28;20048;-50
2023/05/28 01:48:48;;;;;;;6.03;2.30;;;11.70;99.90;;;;;;5053270;28;20044;-50
2023/05/28 01:51:22;;;;;;;4.78;1.67;;;11.70;99.90;;;;;;5053073;28;20067;-52
2023/05/28 01:53:47;;;;;;;8.85;2.13;;;11.70;99.90;;;;;;5056304;28;20044;-53
2023/05/28 01:56:13;;;;;;;6.03;2.37;;;11.70;99.90;;;;;;5057190;28;20454;-52
2023/05/28 01:58:39;;;;;;;6.60;2.20;;;11.80;99.90;;;;;;5057037;28;20049;-53
2023/05/28 02:01:23;;;;;;;6.82;2.60;;;11.80;99.90;;;;;;5056937;28;20053;-53
2023/05/28 02:03:48;;;;;;;5.88;2.10;;;11.80;99.90;;;;;;5056726;28;20049;-53
2023/05/28 02:06:14;;;;;;;6.07;2.20;;;11.80;99.90;;;;;;5056184;28;20152;-52
2023/05/28 02:08:40;;;;;;;5.83;2.30;;;11.80;99.90;;;;;;5056876;28;20068;-52
2023/05/28 02:11:05;;;;;;;5.67;2.07;;;11.80;99.90;;;;;;5056867;28;20041;-53
2023/05/28 02:13:31;;;;;;;6.73;2.33;;;11.80;99.90;;;;;;5057027;28;20092;-53
2023/05/28 02:15:57;;;;;;;6.27;2.53;;;11.90;99.90;;;;;;5056733;28;20287;-53
2023/05/28 02:18:22;;;;;;;4.77;1.90;;;11.90;99.90;;;;;;5056535;28;20072;-53
2023/05/28 02:20:48;;;;;;;5.40;2.03;;;11.90;99.90;;;;;;5056776;28;20056;-53
2023/05/28 02:23:14;;;;;;;7.30;2.20;;;11.90;99.90;;;;;;5057022;28;20045;-54
2023/05/28 02:25:40;;;;;;;6.37;2.17;;;11.80;99.90;;;;;;5056042;28;20366;-53
2023/05/28 02:28:05;;;;;;;7.47;2.23;;;11.80;99.90;;;;;;5056828;28;20056;-53
2023/05/28 02:30:31;;;;;;;7.73;2.30;;;11.80;99.90;;;;;;5056631;28;20119;-52
2023/05/28 02:32:56;;;;;;;5.50;2.20;;;11.90;99.90;;;;;;5038720;28;20480;-52
2023/05/28 02:35:23;;;;;;;9.87;2.33;;;11.80;99.90;;;;;;5056420;28;20125;-53
2023/05/28 02:37:49;;;;;;;5.70;1.92;;;11.80;99.90;;;;;;5056747;28;20136;-52
2023/05/28 02:40:15;;;;;;;6.22;2.22;;;11.90;99.90;;;;;;5055366;28;20571;-53
2023/05/28 02:42:40;;;;;;;5.78;1.88;;;11.80;99.90;;;;;;5055194;28;20047;-54
2023/05/28 02:45:06;;;;;;;6.17;1.90;;;11.80;99.90;;;;;;5056226;28;20506;-52
2023/05/28 02:47:32;;;;;;;6.18;2.30;;;11.80;99.90;;;;;;5054979;28;20092;-52
2023/05/28 02:49:58;;;;;;;7.90;2.03;;;11.80;99.90;;;;;;5055928;28;20080;-53
2023/05/28 02:52:23;;;;;;;7.00;2.40;;;11.80;99.90;;;;;;5055742;28;20515;-52
2023/05/28 02:54:49;;;;;;;5.50;2.23;;;11.80;99.90;;;;;;5054558;28;20055;-53
2023/05/28 02:57:15;;;;;;;6.57;2.17;;;11.80;99.90;;;;;;5056003;28;20079;-53
2023/05/28 02:59:40;;;;;;;7.35;2.50;;;11.80;99.90;;;;;;5055744;28;20052;-52
2023/05/28 03:02:06;;;;;;;4.90;2.07;;;11.70;99.90;;;;;;5054625;28;20101;-53
2023/05/28 03:04:32;;;;;;;6.40;1.80;;;11.70;99.90;;;;;;5055364;28;20396;-52
2023/05/28 03:06:58;;;;;;;7.10;1.95;;;11.70;99.90;;;;;;5055531;28;20052;-52
2023/05/28 03:09:23;;;;;;;6.17;2.33;;;11.70;99.90;;;;;;5054524;28;20045;-53
2023/05/28 03:11:49;;;;;;;5.53;1.97;;;11.70;99.90;;;;;;5055596;28;20045;-52
2023/05/28 03:14:15;;;;;;;5.43;1.90;;;11.60;99.90;;;;;;5055707;28;20090;-53
2023/05/28 03:16:41;;;;;;;6.35;2.60;;;11.50;99.90;;;;;;5054711;28;20048;-53
2023/05/28 03:19:06;;;;;;;7.33;2.67;;;11.50;99.90;;;;;;5054138;28;20408;-52
2023/05/28 03:21:32;;;;;;;6.80;2.73;;;11.40;99.90;;;;;;5054607;28;20106;-53
2023/05/28 03:23:58;;;;;;;5.53;2.07;;;11.40;99.90;;;;;;5055106;28;20041;-53
2023/05/28 03:26:23;;;;;;;5.80;2.00;;;11.40;99.90;;;;;;5055186;28;20111;-52
2023/05/28 03:28:49;;;;;;;7.47;2.10;;;11.30;99.90;;;;;;5055170;28;20103;-51
2023/05/28 03:31:15;;;;;;;7.37;1.90;;;11.30;99.90;;;;;;5055168;28;20044;-52
2023/05/28 03:33:40;;;;;;;6.37;2.30;;;11.40;99.90;;;;;;5055224;28;20041;-53
2023/05/28 03:36:06;;;;;;;5.47;2.47;;;11.40;99.90;;;;;;5055343;28;20389;-53
2023/05/28 03:38:32;;;;;;;4.68;2.17;;;11.40;99.90;;;;;;5055357;28;20049;-52
2023/05/28 03:40:59;;;;;;;6.47;2.03;;;11.40;99.90;;;;;;5054590;28;20144;-52
2023/05/28 03:43:25;;;;;;;;;;;11.50;99.90;;;;;;5055606;28;20084;-53
2023/05/28 03:45:50;;;;;;;6.55;2.30;;;11.50;99.90;;;;;;5054915;28;19967;-53
2023/05/28 03:48:16;;;;;;;7.63;2.20;;;11.40;99.90;;;;;;5055028;28;20071;-52
2023/05/28 03:50:42;;;;;;;5.37;2.67;;;11.40;99.90;;;;;;5055387;28;20048;-53
2023/05/28 03:53:07;;;;;;;4.53;1.83;;;11.40;99.90;;;;;;5054176;28;20095;-52
2023/05/28 03:55:35;;;;;;;5.10;2.10;;;11.30;99.90;;;;;;5055098;28;20044;-53
2023/05/28 03:58:02;;;;;;;7.10;2.35;;;11.30;99.90;;;;;;5054701;28;20051;-52
2023/05/28 04:00:28;;;;;;;4.47;1.98;;;11.30;99.90;;;;;;5053844;28;20049;-53
2023/05/28 04:02:54;;;;;;;4.57;1.67;;;11.20;99.90;;;;;;5054461;28;20056;-53
2023/05/28 04:05:19;;;;;;;6.17;2.13;;;11.20;99.90;;;;;;5053295;28;20049;-53
2023/05/28 04:07:45;;;;;;;5.00;1.93;;;11.20;99.90;;;;;;5054643;28;20288;-53
2023/05/28 04:10:11;;;;;;;7.40;1.87;;;11.30;99.90;;;;;;5054824;28;20084;-53
2023/05/28 04:12:37;;;;;;;6.73;2.40;;;11.30;99.90;;;;;;5053380;28;20049;-53
2023/05/28 04:15:03;;;;;;;6.90;1.60;;;11.30;99.90;;;;;;5053971;28;20101;-53
2023/05/28 04:17:29;;;;;;;9.68;2.17;;;11.40;99.90;;;;;;5054051;28;20092;-52
2023/05/28 04:19:55;;;;;;;4.57;1.70;;;11.40;99.90;;;;;;5054238;28;20096;-53
2023/05/28 04:22:23;;;;;;;5.77;1.77;;;11.50;99.90;;;;;;5054384;28;20052;-51
2023/05/28 04:24:55;;;;;;;5.47;1.60;;;11.50;99.90;;;;;;5054040;28;20292;-53
2023/05/28 04:27:21;;;;;;;4.75;1.77;;;11.50;99.90;;;;;;5054360;28;20052;-52
2023/05/28 04:29:47;;;;;;;5.55;1.80;;;11.60;99.90;;;;;;5054135;28;20550;-54
2023/05/28 04:32:13;;;;;;;7.22;2.05;;;11.60;99.90;;;;;;5053931;28;20049;-53
2023/05/28 04:34:42;;;;;;;5.63;1.90;;;11.60;99.90;;;;;;5054217;28;20127;-52
2023/05/28 04:37:08;;;;;;;6.32;1.65;;;11.60;99.90;;;;;;5054141;28;20102;-54
2023/05/28 04:39:34;;;;;;;5.50;1.75;;;11.70;99.90;;;;;;5052893;28;20049;-53
2023/05/28 04:42:03;;;;;;;6.85;2.15;;;11.70;99.90;;;;;;5054005;28;20053;-52
2023/05/28 04:44:30;;;;;;;6.88;2.10;;;11.70;99.90;;;;;;5053653;28;20050;-52
2023/05/28 04:46:58;;;;;;;5.75;1.98;;;11.70;99.90;;;;;;5054014;28;20048;-53
2023/05/28 04:49:25;;;;;;;6.93;1.70;;;11.70;99.90;;;;;;5053929;28;20063;-51
2023/05/28 04:51:51;;;;;;;8.07;2.13;;;11.70;99.90;;;;;;5054206;28;20045;-52
2023/05/28 04:54:16;;;;;;;5.53;1.70;;;11.70;99.90;;;;;;5052890;28;20110;-52
2023/05/28 04:56:42;;;;;;;5.13;1.63;;;11.60;99.90;;;;;;5053861;28;20041;-53
2023/05/28 04:59:09;;;;;;;6.47;1.83;;;11.60;99.90;;;;;;5053540;28;20480;-52
2023/05/28 05:01:35;;;;;;;5.20;1.95;;;11.50;99.90;;;;;;5054108;28;20049;-52
2023/05/28 05:04:02;;;;;;;6.15;2.28;;;11.50;99.90;;;;;;5053703;28;20043;-52
2023/05/28 05:06:27;;;;;;;6.75;1.95;;;11.50;99.90;;;;;;5053768;28;20071;-52
2023/05/28 05:08:53;;;;;;;8.17;2.70;;;11.60;99.90;;;;;;5053557;28;20040;-52
2023/05/28 05:11:20;;;;;;;4.47;1.70;;;11.60;99.90;;;;;;5052452;28;20053;-52
2023/05/28 05:13:45;;;;;;;4.15;1.50;;;11.70;99.90;;;;;;5052284;28;20048;-52
2023/05/28 05:16:12;;;;;;;5.07;1.80;;;11.80;99.90;;;;;;5053545;28;20040;-53
2023/05/28 05:18:37;;;;;;;;;;;11.90;99.90;;;;;;5052570;28;20061;-53
2023/05/28 05:21:03;;;;;;;4.50;1.70;;;12.10;99.90;;;;;;5053896;28;19920;-52
2023/05/28 05:23:29;;;;;;;8.73;2.05;;;12.50;99.90;;;;;;5052383;28;20045;-53
2023/05/28 05:25:55;;;;;;;8.90;2.15;;;12.70;99.90;;;;;;5053412;28;20051;-53
2023/05/28 05:28:21;;;;;;;8.83;1.87;;;12.90;99.90;;;;;;5055458;28;20041;-53
2023/05/28 05:30:47;;;;;;;6.70;2.20;;;13.00;99.90;;;;;;5057640;28;20388;-52
2023/05/28 05:33:12;;;;;;;7.53;2.27;;;13.10;99.90;;;;;;5057588;28;20045;-51
2023/05/28 05:35:38;;;;;;;9.13;1.80;;;13.20;99.90;;;;;;5057498;28;20059;-48
2023/05/28 05:38:05;;;;;;;8.17;3.00;;;13.20;99.90;;;;;;5057690;28;20076;-49
2023/05/28 05:40:31;;;;;;;7.88;2.30;;;13.20;99.90;;;;;;5056254;28;20057;-49
2023/05/28 05:42:56;;;;;;;7.47;2.10;;;13.20;99.90;;;;;;5057135;28;20075;-49
2023/05/28 05:45:22;;;;;;;7.47;2.37;;;13.30;99.90;;;;;;5056584;28;20123;-48
2023/05/28 05:47:48;;;;;;;9.90;2.90;;;13.40;99.90;;;;;;5057266;28;20123;-49
2023/05/28 05:50:13;;;;;;;5.77;1.67;;;13.40;99.90;;;;;;5057480;28;20319;-50
2023/05/28 05:52:40;;;;;;;6.50;1.90;;;13.50;99.90;;;;;;5057186;28;20107;-49
2023/05/28 05:55:07;;;;;;;5.40;2.35;;;13.50;99.90;;;;;;5057099;28;20049;-48
2023/05/28 05:57:33;;;;;;;5.10;2.05;;;13.60;99.90;;;;;;5055951;28;20515;-49
2023/05/28 05:59:59;;;;;;;11.35;2.25;;;13.70;99.90;;;;;;5057086;28;20063;-48
2023/05/28 06:02:25;;;;;;;8.15;1.98;;;13.80;99.90;;;;;;5057036;28;20045;-49
2023/05/28 06:04:51;;;;;;;6.95;2.03;;;13.80;99.90;;;;;;5055770;28;20088;-49
2023/05/28 06:07:17;;;;;;;6.85;2.45;;;13.90;99.90;;;;;;5056888;28;20060;-49
2023/05/28 06:09:43;;;;;;;8.95;2.40;;;13.90;99.90;;;;;;5056744;28;20042;-48
2023/05/28 06:12:09;;;;;;;5.40;2.20;;;14.00;99.90;;;;;;5056625;28;20044;-48
2023/05/28 06:14:35;;;;;;;10.63;1.87;;;14.10;99.90;;;;;;5056847;28;20047;-52
2023/05/28 06:17:01;;;;;;;7.13;2.22;;;14.20;99.90;;;;;;5056548;28;20483;-50
2023/05/28 06:19:27;;;;;;;6.60;2.25;;;14.20;99.90;;;;;;5056460;28;20057;-47
2023/05/28 06:21:53;;;;;;;5.37;1.70;;;14.30;99.90;;;;;;5056664;28;20045;-53
2023/05/28 06:24:19;;;;;;;4.80;1.60;;;14.30;99.90;;;;;;5056433;28;20053;-48
2023/05/28 06:26:45;;;;;;;7.40;1.60;;;14.40;99.90;;;;;;5056463;28;20090;-50
2023/05/28 06:29:10;;;;;;;6.43;1.98;;;14.50;99.90;;;;;;5056581;28;20051;-51
2023/05/28 06:31:36;;;;;;;5.73;1.67;;;14.50;99.90;;;;;;5056596;28;20053;-54
2023/05/28 06:34:02;;;;;;;6.43;1.55;;;14.60;99.90;;;;;;5055679;28;20080;-55
2023/05/28 06:36:28;;;;;;;4.40;1.63;;;14.70;99.90;;;;;;5056277;28;20105;-55
2023/05/28 06:38:54;;;;;;;6.25;1.67;;;14.70;99.90;;;;;;5055771;28;20056;-53
2023/05/28 06:41:19;;;;;;;6.70;2.05;;;14.70;99.90;;;;;;5056202;28;20045;-48
2023/05/28 06:43:46;;;;;;;5.97;2.00;;;14.70;99.90;;;;;;5055941;28;20041;-50
2023/05/28 06:46:12;;;;;;;5.20;1.42;;;14.70;99.90;;;;;;5055698;28;20057;-54
2023/05/28 06:48:37;;;;;;;3.60;1.35;;;14.80;99.90;;;;;;5056203;28;20056;-54
2023/05/28 06:51:03;;;;;;;3.97;1.70;;;14.90;99.90;;;;;;5056196;28;20044;-53
2023/05/28 06:53:29;;;;;;;5.38;1.90;;;14.90;99.90;;;;;;5038584;28;20344;-50
2023/05/28 06:55:55;;;;;;;5.57;1.77;;;15.00;99.90;;;;;;5055039;28;20085;-52
2023/05/28 06:58:21;;;;;;;4.95;2.00;;;15.00;99.90;;;;;;5055743;28;20381;-52
2023/05/28 07:00:46;;;;;;;6.78;1.80;;;15.10;99.90;;;;;;5055998;28;20049;-54
2023/05/28 07:03:12;;;;;;;5.40;1.70;;;15.20;99.90;;;;;;5055788;28;20143;-52
2023/05/28 07:05:38;;;;;;;5.40;2.07;;;15.20;99.90;;;;;;5054532;28;20298;-48
2023/05/28 07:08:03;;;;;;;3.60;1.27;;;15.30;99.90;;;;;;5054513;28;20123;-49
2023/05/28 07:10:29;;;;;;;3.60;1.20;;;15.40;99.90;;;;;;5054698;28;20284;-52
2023/05/28 07:12:55;;;;;;;6.63;1.33;;;15.50;99.90;;;;;;5055503;28;20048;-53
2023/05/28 07:15:21;;;;;;;3.90;1.40;;;15.50;99.90;;;;;;5056123;28;20630;-54
2023/05/28 07:17:47;;;;;;;;;;;15.50;99.90;;;;;;5056091;28;20056;-55
2023/05/28 07:20:13;;;;;;;5.22;1.48;;;15.60;99.90;;;;;;5055580;28;19920;-53
2023/05/28 07:22:39;;;;;;;4.10;1.23;;;15.70;99.90;;;;;;5055467;28;20199;-53
2023/05/28 07:25:06;;;;;;;5.65;1.52;;;16.00;99.90;;;;;;5055167;28;20127;-49
2023/05/28 07:27:32;;;;;;;3.95;1.30;;;16.30;99.90;;;;;;5055482;28;20057;-52
2023/05/28 07:29:58;;;;;;;4.00;1.38;;;16.50;99.90;;;;;;5055206;28;20053;-53
2023/05/28 07:32:24;;;;;;;3.72;1.20;;;16.50;99.90;;;;;;5055475;28;20057;-55
2023/05/28 07:34:50;;;;;;;3.22;1.00;;;16.50;99.90;;;;;;5055398;28;20053;-54
2023/05/28 07:37:15;;;;;;;6.65;1.20;;;16.50;99.90;;;;;;5055257;28;20052;-50
2023/05/28 07:39:41;;;;;;;5.80;1.50;;;16.40;99.90;;;;;;5055227;28;20045;-52
2023/05/28 07:42:06;;;;;;;3.57;1.13;;;16.40;99.90;;;;;;5054919;28;20322;-52
2023/05/28 07:44:33;;;;;;;3.65;1.42;;;16.30;99.90;;;;;;5055146;28;20052;-53
2023/05/28 07:46:58;;;;;;;5.03;1.17;;;16.30;99.90;;;;;;5055067;28;20051;-54
2023/05/28 07:49:24;;;;;;;5.70;1.27;;;16.20;99.90;;;;;;5055110;28;20236;-54
2023/05/28 07:51:50;;;;;;;2.65;1.10;;;16.20;99.90;;;;;;5054152;28;20043;-52
2023/05/28 07:54:15;;;;;;;4.78;1.27;;;16.10;99.90;;;;;;5054911;28;20404;-51
2023/05/28 07:56:41;;;;;;;5.17;1.40;;;16.10;99.90;;;;;;5054928;28;20049;-54
2023/05/28 07:59:07;;;;;;;4.70;1.60;;;16.10;99.90;;;;;;5054888;28;20283;-53
2023/05/28 08:01:33;;;;;;;6.65;1.52;;;16.10;99.90;;;;;;5054727;28;20049;-53
2023/05/28 08:04:00;;;;;;;5.20;1.50;;;16.20;99.90;;;;;;5054674;28;20099;-55
2023/05/28 08:06:26;;;;;;;4.22;1.85;;;16.10;99.90;;;;;;5054752;28;20057;-53
2023/05/28 08:08:52;;;;;;;5.22;1.55;;;16.10;99.90;;;;;;5053472;28;20049;-55
2023/05/28 08:11:18;;;;;;;4.80;1.30;;;16.10;99.90;;;;;;5053634;28;20499;-56
2023/05/28 08:13:43;;;;;;;5.15;1.50;;;16.10;99.90;;;;;;5054622;28;20555;-53
2023/05/28 08:16:12;;;;;;;5.35;1.83;;;16.10;99.90;;;;;;5054860;28;20128;-53
2023/05/28 08:18:39;;;;;;;5.10;1.70;;;16.10;99.90;;;;;;5054191;28;20385;-53
2023/05/28 08:21:06;;;;;;;4.28;1.60;;;16.00;99.90;;;;;;5054752;28;20049;-52
2023/05/28 08:23:34;;;;;;;6.60;2.05;;;16.00;99.90;;;;;;5054223;28;20127;-55
2023/05/28 08:26:03;;;;;;;5.72;1.90;;;16.00;99.90;;;;;;5054318;28;20048;-53
2023/05/28 08:28:29;;;;;;;6.10;1.77;;;16.10;99.90;;;;;;5053387;28;20131;-53
2023/05/28 08:30:55;;;;;;;6.75;2.03;;;16.10;99.90;;;;;;5054378;28;20459;-53
2023/05/28 08:33:23;;;;;;;5.80;1.83;;;16.20;99.90;;;;;;5054257;28;20174;-53
2023/05/28 08:35:49;;;;;;;5.57;1.60;;;16.20;99.90;;;;;;5053917;28;20492;-55
2023/05/28 08:38:14;;;;;;;4.35;1.77;;;16.20;99.90;;;;;;5053950;28;20048;-48
2023/05/28 08:40:42;;;;;;;7.55;1.95;;;16.20;99.90;;;;;;5054523;28;20081;-49
2023/05/28 08:43:08;;;;;;;6.22;2.22;;;16.20;99.90;;;;;;5053129;28;20136;-53
2023/05/28 08:45:35;;;;;;;4.90;1.83;;;16.20;99.90;;;;;;5054179;28;20124;-55
2023/05/28 08:48:03;;;;;;;5.72;2.10;;;16.20;99.90;;;;;;5054019;28;20052;-54
2023/05/28 08:50:29;;;;;;;6.80;1.95;;;16.30;99.90;;;;;;5053929;28;20549;-56
2023/05/28 08:52:58;;;;;;;5.72;2.00;;;16.30;99.90;;;;;;5053671;28;20097;-56
2023/05/28 08:55:24;;;;;;;6.15;1.98;;;16.30;99.90;;;;;;5053892;28;20041;-53
2023/05/28 08:57:51;;;;;;;4.80;1.63;;;16.40;99.90;;;;;;5052801;28;20071;-52
2023/05/28 09:00:17;;;;;;;5.43;2.13;;;16.30;99.90;;;;;;5053700;28;20048;-53
2023/05/28 09:02:43;;;;;;;5.07;2.10;;;16.40;99.90;;;;;;5052479;28;20137;-51
2023/05/28 09:05:09;;;;;;;7.38;2.30;;;16.40;99.90;;;;;;5053614;28;20060;-53
2023/05/28 09:07:35;;;;;;;6.40;2.20;;;16.50;99.90;;;;;;5053634;28;20580;-54
2023/05/28 09:10:03;;;;;;;5.55;1.90;;;16.50;99.90;;;;;;5053745;28;20073;-53
2023/05/28 09:12:28;;;;;;;5.47;1.85;;;16.50;99.90;;;;;;5053806;28;20123;-54
2023/05/28 09:14:54;;;;;;;4.25;1.70;;;16.50;99.90;;;;;;5053779;28;20504;-49
2023/05/28 09:17:41;;;;;;;9.48;3.30;;;16.60;99.90;;;;;;5053465;28;20440;-53
2023/05/28 09:20:14;;;;;;;6.38;2.58;;;16.60;99.90;;;;;;5053592;28;20092;-55
2023/05/28 09:22:40;;;;;;;5.70;2.20;;;16.70;99.90;;;;;;5052765;28;20452;-48
2023/05/28 09:25:07;;;;;;;5.43;2.10;;;16.70;99.90;;;;;;5052175;28;20152;-50
2023/05/28 09:27:33;;;;;;;7.20;2.30;;;16.70;99.90;;;;;;5053584;28;20399;-53
2023/05/28 09:30:11;;;;;;;6.38;2.28;;;16.70;99.90;;;;;;5053611;28;20106;-54
2023/05/28 09:32:37;;;;;;;6.88;1.80;;;16.70;99.90;;;;;;5053346;28;20052;-53
2023/05/28 09:35:06;;;;;;;5.82;2.22;;;16.70;99.90;;;;;;5053448;28;20419;-54
2023/05/28 09:37:33;;;;;;;5.75;2.50;;;16.70;99.90;;;;;;5053450;28;20085;-56
2023/05/28 09:40:03;;;;;;;5.13;2.03;;;16.70;99.90;;;;;;5053297;28;20057;-53
2023/05/28 09:42:39;;;;;;;7.32;3.00;;;16.70;99.90;;;;;;5053123;28;20056;-55
2023/05/28 09:45:05;;;;;;;5.47;2.30;;;16.80;99.90;;;;;;5052986;28;20084;-49
2023/05/28 09:47:31;;;;;;;;;;;16.80;99.90;;;;;;5053790;28;20045;-51
2023/05/28 09:49:56;;;;;;;6.13;2.30;;;16.90;99.90;;;;;;5053221;28;20056;-53
2023/05/28 09:52:23;;;;;;;5.00;1.90;;;16.90;99.90;;;;;;5053278;28;20136;-49
2023/05/28 09:54:55;;;;;;;7.10;2.47;;;16.90;99.90;;;;;;5053250;28;20280;-54
2023/05/28 09:57:30;;;;;;;6.38;2.28;;;17.00;99.90;;;;;;5053009;28;20084;-53
2023/05/28 09:59:56;;;;;;;5.60;2.20;;;17.00;99.90;;;;;;5053215;28;20092;-49
2023/05/28 10:02:31;;;;;;;7.07;2.40;;;17.00;99.90;;;;;;5053111;28;20076;-52
2023/05/28 10:04:59;;;;;;;6.20;2.65;;;17.10;99.90;;;;;;5052807;28;20496;-53
2023/05/28 10:07:27;;;;;;;6.72;2.58;;;17.20;99.90;;;;;;5052959;28;20381;-54
2023/05/28 10:09:55;;;;;;;7.97;2.63;;;17.20;99.90;;;;;;5052964;28;20049;-48
2023/05/28 10:12:28;;;;;;;4.88;2.17;;;17.30;99.90;;;;;;5052982;28;20048;-54
2023/05/28 10:14:54;;;;;;;5.75;2.33;;;17.40;99.50;;;;;;5055620;28;20365;-54
2023/05/28 10:17:21;;;;;;;5.88;1.90;;;17.40;98.90;;;;;;5056816;28;20049;-54
2023/05/28 10:19:47;;;;;;;7.43;2.30;;;17.50;97.70;;;;;;5056842;28;20377;-53
2023/05/28 10:22:15;;;;;;;5.05;1.95;;;17.60;98.10;;;;;;5056639;28;20064;-53
2023/05/28 10:24:42;;;;;;;4.70;1.52;;;17.70;97.50;;;;;;5055173;28;20045;-56
2023/05/28 10:27:13;;;;;;;3.25;1.20;;;17.80;97.40;;;;;;5056797;28;20517;-53
2023/05/28 10:29:41;;;;;;;4.25;1.48;;;17.90;95.60;;;;;;5056055;28;20045;-54
2023/05/28 10:32:07;;;;;;;3.38;1.30;;;18.00;96.30;;;;;;5056448;28;20503;-50
2023/05/28 10:34:35;;;;;;;5.72;1.35;;;18.10;96.00;;;;;;5056411;28;20107;-52
2023/05/28 10:37:05;;;;;;;3.38;1.35;;;18.20;95.60;;;;;;5056439;28;20067;-56
2023/05/28 10:39:47;;;;;;;4.90;1.25;;;18.30;95.60;;;;;;5054883;28;20507;-54
2023/05/28 10:42:15;;;;;;;4.82;1.25;;;18.40;95.50;;;;;;5056431;28;20130;-55
2023/05/28 10:45:07;;;;;;;3.38;1.30;;;18.50;93.70;;;;;;5056150;28;20044;-54
2023/05/28 10:47:38;;;;;;;3.45;1.00;;;18.60;93.90;;;;;;5056025;28;20045;-56
2023/05/28 10:50:17;;;;;;;5.80;1.42;;;18.60;92.20;;;;;;5055063;28;20048;-56
2023/05/28 10:52:43;;;;;;;3.25;1.02;;;18.70;91.30;;;;;;5056197;28;20053;-54
2023/05/28 10:55:12;;;;;;;4.00;1.02;;;18.80;92.30;;;;;;5056062;28;20033;-55
2023/05/28 10:57:45;;;;;;;4.00;1.10;;;18.80;92.60;;;;;;5055893;28;20056;-52
2023/05/28 11:00:14;;;;;;;5.00;1.80;;;18.90;92.30;;;;;;5055804;28;20087;-55
2023/05/28 11:02:43;;;;;;;3.58;1.08;;;19.00;92.90;;;;;;5054809;28;20048;-53
2023/05/28 11:05:09;;;;;;;3.60;0.98;;;19.00;93.30;;;;;;5055998;28;20103;-54
2023/05/28 11:07:40;;;;;;;4.20;1.50;;;19.10;93.90;;;;;;5055144;28;20083;-56
2023/05/28 11:10:08;;;;;;;5.07;1.35;;;19.20;94.20;;;;;;5055535;28;20484;-55
2023/05/28 11:12:39;;;;;;;4.32;1.20;;;19.30;94.60;;;;;;5055767;28;20052;-56
2023/05/28 11:15:07;;;;;;;3.70;1.48;;;19.40;95.10;;;;;;5055730;28;20120;-54
2023/05/28 11:17:41;;;;;;;3.50;1.00;;;19.50;95.20;;;;;;5055658;28;20080;-55
2023/05/28 11:20:25;;;;;;;5.55;1.13;;;19.60;95.20;;;;;;5055398;28;20096;-54
2023/05/28 11:22:52;;;;;;;6.35;1.35;;;19.50;95.50;;;;;;5055540;28;20049;-56
2023/05/28 11:25:20;;;;;;;4.45;1.27;;;19.60;95.80;;;;;;5055069;28;20469;-54
2023/05/28 11:27:47;;;;;;;4.07;1.48;;;19.60;96.10;;;;;;5055554;28;20072;-53
2023/05/28 11:30:15;;;;;;;4.22;1.40;;;19.70;95.90;;;;;;5055691;28;20095;-54
2023/05/28 11:32:42;;;;;;;5.70;1.70;;;19.70;96.00;;;;;;5055433;28;20048;-55
2023/05/28 11:35:12;;;;;;;2.83;1.05;;;19.80;96.50;;;;;;5055343;28;20459;-55
2023/05/28 11:37:39;;;;;;;3.65;1.25;;;19.80;96.90;;;;;;5055197;28;20053;-55
2023/05/28 11:40:10;;;;;;;4.97;1.20;;;19.80;97.00;;;;;;5053992;28;20053;-53
2023/05/28 11:42:37;;;;;;;8.63;1.63;;;19.80;97.90;;;;;;5055220;28;20041;-53
2023/05/28 11:45:04;;;;;;;5.05;1.15;;;19.90;98.50;;;;;;5055175;28;20071;-55
2023/05/28 11:47:35;;;;;;;5.25;1.48;;;19.90;98.90;;;;;;5054939;28;20047;-53
2023/05/28 11:50:14;;;;;;;5.25;1.50;;;19.80;99.20;;;;;;5055074;28;20085;-56
2023/05/28 11:52:41;;;;;;;3.45;1.40;;;19.80;99.70;;;;;;5055575;28;20095;-53
2023/05/28 11:55:07;;;;;;;3.97;1.55;;;19.90;99.90;;;;;;5054966;28;20129;-55
2023/05/28 11:57:33;;;;;;;7.35;1.60;;;19.90;99.90;;;;;;5054883;28;20079;-53
2023/05/28 11:59:59;;;;;;;;;;;19.90;99.90;;;;;;5037695;28;20052;-55
2023/05/28 12:02:25;;;;;;;3.63;1.33;;;19.80;99.90;;;;;;5054602;28;19927;-53
2023/05/28 12:04:59;;;;;;;4.65;1.40;;;19.80;99.90;;;;;;5054395;28;20037;-53
2023/05/28 12:07:33;;;;;;;5.28;1.55;;;19.70;99.90;;;;;;5037696;28;20053;-55
2023/05/28 12:10:09;;;;;;;4.28;1.20;;;19.70;99.90;;;;;;5055079;28;20049;-53
2023/05/28 12:12:43;;;;;;;5.95;1.77;;;19.60;99.90;;;;;;5053446;28;20044;-56
2023/05/28 12:15:09;;;;;;;4.05;1.60;;;19.50;99.90;;;;;;5054647;28;20099;-54
2023/05/28 12:17:39;;;;;;;6.85;1.52;;;19.50;99.90;;;;;;5054517;28;20077;-56
2023/05/28 12:20:07;;;;;;;4.85;1.50;;;19.50;99.90;;;;;;5054476;28;20136;-48
2023/05/28 12:22:34;;;;;;;4.07;1.35;;;19.60;99.90;;;;;;5054347;28;20064;-54
2023/05/28 12:25:00;;;;;;;;;;;19.60;99.90;;;;;;5053485;28;20044;-50
2023/05/28 12:27:26;;;;;;;4.43;1.60;;;19.60;99.90;;;;;;5054099;28;19920;-54
2023/05/28 12:29:52;;;;;;;7.18;1.58;;;19.60;99.90;;;;;;5054038;28;20124;-52
2023/05/28 12:32:19;;;;;;;4.22;1.40;;;19.60;99.90;;;;;;5054301;28;20110;-49
2023/05/28 12:34:44;;;;;;;6.20;1.13;;;19.70;99.90;;;;;;5054211;28;20045;-55
2023/05/28 12:37:10;;;;;;;3.90;1.45;;;19.70;99.90;;;;;;5053604;28;20093;-55
2023/05/28 12:39:37;;;;;;;4.80;1.40;;;19.70;99.90;;;;;;5054073;28;20045;-55
2023/05/28 12:42:03;;;;;;;6.47;1.42;;;19.70;99.90;;;;;;5053788;28;20052;-55
2023/05/28 12:44:29;;;;;;;5.20;1.60;;;19.70;99.90;;;;;;5053868;28;20396;-54
2023/05/28 12:46:55;;;;;;;3.17;1.40;;;19.70;99.90;;;;;;5054029;28;20041;-54